• Join FlightAware (Why Join?)
  • Login
  • US Flag 
01:41PM EDT


 

Airport Tracker/Info


-or-


 

Live Flight TrackerFlight Track Log ✈ FDX1151 ✈ 08-Mar-2012 ✈ KLAX

Flight Track Log - Related Links

Times and Time Zones

All times are in EST time to prevent confusion due to time zone crossing. See the FDX1151 flight status page for this flight to view local times or setup timezone preferences in your user account.

Time Position Orientation Groundspeed Altitude Reporting Facility
EST Latitude Longitude Course Direction KTS MPH feet Rate Location/Type
06:37AM -14.4620 -149.5216 31° Northeast  Level FlightAware Approximate
06:38AM -14.3952 -149.4805 31° Northeast  Level FlightAware Approximate
06:39AM -14.3154 -149.4315 31° Northeast  Level FlightAware Approximate
06:40AM -14.2156 -149.3703 31° Northeast  Level FlightAware Approximate
06:41AM -14.1159 -149.3092 31° Northeast  Level FlightAware Approximate
06:42AM -14.0149 -149.2474 31° Northeast  Level FlightAware Approximate
06:43AM -13.9139 -149.1857 31° Northeast  Level FlightAware Approximate
06:44AM -13.8129 -149.1240 31° Northeast  Level FlightAware Approximate
06:45AM -13.7113 -149.0620 31° Northeast  Level FlightAware Approximate
06:46AM -13.6097 -149.0000 31° Northeast  Level FlightAware Approximate
06:47AM -13.5080 -148.9381 31° Northeast  Level FlightAware Approximate
06:48AM -13.4064 -148.8763 31° Northeast  Level FlightAware Approximate
06:49AM -13.3047 -148.8145 31° Northeast  Level FlightAware Approximate
06:50AM -13.2030 -148.7527 31° Northeast  Level FlightAware Approximate
06:51AM -13.1013 -148.6911 31° Northeast  Level FlightAware Approximate
06:52AM -12.9996 -148.6294 31° Northeast  Level FlightAware Approximate
06:53AM -12.8979 -148.5678 31° Northeast  Level FlightAware Approximate
06:54AM -12.7961 -148.5063 31° Northeast  Level FlightAware Approximate
06:55AM -12.6944 -148.4448 31° Northeast  Level FlightAware Approximate
06:56AM -12.5926 -148.3834 30° Northeast  Level FlightAware Approximate
06:57AM -12.4908 -148.3220 30° Northeast  Level FlightAware Approximate
06:58AM -12.3890 -148.2607 30° Northeast  Level FlightAware Approximate
06:59AM -12.2872 -148.1994 30° Northeast  Level FlightAware Approximate
07:00AM -12.1854 -148.1381 30° Northeast  Level FlightAware Approximate
07:01AM -12.0835 -148.0769 30° Northeast  Level FlightAware Approximate
07:02AM -11.9817 -148.0157 30° Northeast  Level FlightAware Approximate
07:03AM -11.8798 -147.9546 30° Northeast  Level FlightAware Approximate
07:04AM -11.7779 -147.8936 30° Northeast  Level FlightAware Approximate
07:05AM -11.6760 -147.8326 30° Northeast  Level FlightAware Approximate
07:06AM -11.5741 -147.7716 30° Northeast  Level FlightAware Approximate
07:07AM -11.4722 -147.7106 30° Northeast  Level FlightAware Approximate
07:08AM -11.3702 -147.6498 30° Northeast  Level FlightAware Approximate
07:09AM -11.2683 -147.5889 30° Northeast  Level FlightAware Approximate
07:10AM -11.1663 -147.5281 30° Northeast  Level FlightAware Approximate
07:11AM -11.0644 -147.4674 30° Northeast  Level FlightAware Approximate
07:12AM -10.9624 -147.4067 30° Northeast  Level FlightAware Approximate
07:13AM -10.8604 -147.3460 30° Northeast  Level FlightAware Approximate
07:14AM -10.7584 -147.2854 30° Northeast  Level FlightAware Approximate
07:15AM -10.6564 -147.2248 30° Northeast  Level FlightAware Approximate
07:16AM -10.5543 -147.1642 30° Northeast  Level FlightAware Approximate
07:17AM -10.4523 -147.1037 30° Northeast  Level FlightAware Approximate
07:18AM -10.3502 -147.0433 30° Northeast  Level FlightAware Approximate
07:19AM -10.2482 -146.9828 30° Northeast  Level FlightAware Approximate
07:20AM -10.1461 -146.9225 30° Northeast  Level FlightAware Approximate
07:21AM -10.0440 -146.8621 30° Northeast  Level FlightAware Approximate
07:22AM -9.9419 -146.8018 30° Northeast  Level FlightAware Approximate
07:23AM -9.8398 -146.7415 30° Northeast  Level FlightAware Approximate
07:24AM -9.7377 -146.6813 30° Northeast  Level FlightAware Approximate
07:25AM -9.6355 -146.6211 30° Northeast  Level FlightAware Approximate
07:26AM -9.5334 -146.5609 30° Northeast  Level FlightAware Approximate
07:27AM -9.4312 -146.5008 30° Northeast  Level FlightAware Approximate
07:28AM -9.3291 -146.4407 30° Northeast  Level FlightAware Approximate
07:29AM -9.2269 -146.3806 30° Northeast  Level FlightAware Approximate
07:30AM -9.1247 -146.3206 30° Northeast  Level FlightAware Approximate
07:31AM -9.0225 -146.2606 30° Northeast  Level FlightAware Approximate
07:32AM -8.9204 -146.2007 30° Northeast  Level FlightAware Approximate
07:33AM -8.8181 -146.1407 30° Northeast  Level FlightAware Approximate
07:34AM -8.7159 -146.0809 30° Northeast  Level FlightAware Approximate
07:35AM -8.6137 -146.0210 30° Northeast  Level FlightAware Approximate
07:36AM -8.5115 -145.9610 30° Northeast  Level Estimated
07:37AM 33.9333 -118.4000 30° Northeast  Level FlightAware Approximate